createdAt,value
2018-02-17T00:01:16.890Z,19.10
2018-02-17T00:03:44.113Z,19.00
2018-02-17T00:06:10.454Z,18.40
2018-02-17T00:08:36.777Z,18.60
2018-02-17T00:11:03.199Z,18.60
2018-02-17T00:13:29.769Z,18.50
2018-02-17T00:15:56.100Z,18.50
2018-02-17T00:18:22.558Z,18.40
2018-02-17T00:20:48.922Z,18.60
2018-02-17T00:23:15.992Z,18.60
2018-02-17T00:25:42.474Z,18.50
2018-02-17T00:28:09.180Z,18.50
2018-02-17T00:30:35.914Z,18.40
2018-02-17T00:33:02.973Z,18.00
2018-02-17T00:35:30.421Z,18.00
2018-02-17T00:37:56.759Z,18.10
2018-02-17T00:40:23.222Z,17.90
2018-02-17T00:42:49.712Z,17.80
2018-02-17T00:45:16.477Z,18.00
2018-02-17T00:47:42.798Z,17.50
2018-02-17T00:50:09.237Z,17.70
2018-02-17T00:52:35.784Z,17.60
2018-02-17T00:55:02.113Z,17.50
2018-02-17T00:57:28.442Z,17.20
2018-02-17T00:59:54.919Z,17.20
2018-02-17T01:02:21.278Z,17.20
2018-02-17T01:04:48.351Z,17.10
2018-02-17T01:07:14.830Z,17.20
2018-02-17T01:09:41.225Z,17.30
2018-02-17T01:12:07.543Z,17.50
2018-02-17T01:14:34.878Z,16.70
2018-02-17T01:17:01.247Z,17.40
2018-02-17T01:19:28.322Z,16.90
2018-02-17T01:21:55.112Z,16.70
2018-02-17T01:24:21.443Z,16.60
2018-02-17T01:26:47.772Z,16.70
2018-02-17T01:29:14.320Z,17.00
2018-02-17T01:31:40.668Z,16.80
2018-02-17T01:34:06.990Z,17.00
2018-02-17T01:36:33.538Z,16.90
2018-02-17T01:38:59.884Z,16.60
2018-02-17T01:41:26.621Z,16.60
2018-02-17T01:43:52.933Z,16.60
2018-02-17T01:46:19.264Z,16.60
2018-02-17T01:48:45.721Z,16.60
2018-02-17T01:51:12.038Z,16.80
2018-02-17T01:53:38.406Z,16.80
2018-02-17T01:56:04.945Z,16.70
2018-02-17T01:58:31.301Z,16.50
2018-02-17T02:00:57.620Z,16.80
2018-02-17T02:03:24.088Z,16.60
2018-02-17T02:05:50.416Z,16.80
2018-02-17T02:08:16.744Z,16.20
2018-02-17T02:10:43.238Z,16.50
2018-02-17T02:13:09.599Z,16.30
2018-02-17T02:15:35.947Z,16.20
2018-02-17T02:18:02.440Z,16.10
2018-02-17T02:20:29.527Z,16.70
2018-02-17T02:22:55.849Z,16.20
2018-02-17T02:25:22.320Z,16.10
2018-02-17T02:27:48.648Z,16.20
2018-02-17T02:30:14.971Z,16.20
2018-02-17T02:32:41.438Z,16.20
2018-02-17T02:35:07.758Z,16.10
2018-02-17T02:37:34.458Z,16.20
2018-02-17T02:40:01.776Z,16.40
2018-02-17T02:42:28.089Z,16.00
2018-02-17T02:44:54.416Z,16.30
2018-02-17T02:47:20.880Z,16.10
2018-02-17T02:49:47.244Z,16.20
2018-02-17T02:52:13.570Z,16.20
2018-02-17T02:54:40.009Z,16.10
2018-02-17T02:57:06.374Z,16.10
2018-02-17T02:59:33.448Z,16.20
2018-02-17T03:01:59.921Z,16.40
2018-02-17T03:04:26.244Z,16.00
2018-02-17T03:06:52.586Z,16.30
2018-02-17T03:09:19.145Z,16.10
2018-02-17T03:11:45.472Z,16.20
2018-02-17T03:14:11.837Z,16.20
2018-02-17T03:16:38.351Z,16.10
2018-02-17T03:19:05.113Z,16.20
2018-02-17T03:21:31.436Z,16.10
2018-02-17T03:23:57.764Z,16.20
2018-02-17T03:26:24.309Z,16.10
2018-02-17T03:28:50.619Z,15.90
2018-02-17T03:31:16.975Z,16.00
2018-02-17T03:33:43.534Z,16.20
2018-02-17T03:36:09.899Z,16.10
2018-02-17T03:38:36.219Z,16.00
2018-02-17T03:41:02.761Z,16.10
2018-02-17T03:43:29.092Z,16.30
2018-02-17T03:45:55.453Z,16.00
2018-02-17T03:48:21.952Z,16.00
2018-02-17T03:50:48.273Z,16.30
2018-02-17T03:53:14.608Z,16.10
2018-02-17T03:55:41.047Z,16.10
2018-02-17T03:58:07.369Z,16.20
2018-02-17T04:00:33.695Z,16.20
2018-02-17T04:03:00.142Z,16.10
2018-02-17T04:05:26.504Z,16.30
2018-02-17T04:07:52.852Z,16.30
2018-02-17T04:10:19.389Z,15.80
2018-02-17T04:12:45.726Z,15.80
2018-02-17T04:15:12.060Z,16.00
2018-02-17T04:17:38.507Z,16.10
2018-02-17T04:20:04.952Z,15.50
2018-02-17T04:22:31.276Z,15.60
2018-02-17T04:24:57.724Z,15.70
2018-02-17T04:27:24.047Z,15.90
2018-02-17T04:29:50.370Z,15.80
2018-02-17T04:32:16.941Z,15.70
2018-02-17T04:34:43.261Z,15.60
2018-02-17T04:37:09.604Z,15.60
2018-02-17T04:39:37.005Z,15.70
2018-02-17T04:45:26.091Z,15.70
2018-02-17T04:47:58.625Z,15.70
2018-02-17T04:53:49.193Z,15.70
2018-02-17T04:56:21.725Z,15.70
2018-02-17T04:58:59.053Z,15.60
2018-02-17T05:01:25.750Z,15.80
2018-02-17T05:03:53.921Z,15.70
2018-02-17T05:06:21.774Z,15.70
2018-02-17T05:08:55.070Z,15.60
2018-02-17T05:11:22.154Z,15.80
2018-02-17T05:13:48.500Z,15.70
2018-02-17T05:16:31.807Z,15.80
2018-02-17T05:19:08.196Z,15.80
2018-02-17T05:21:39.664Z,15.50
2018-02-17T05:27:28.936Z,15.70
2018-02-17T05:29:56.098Z,15.40
2018-02-17T05:32:25.321Z,15.30
2018-02-17T05:34:54.484Z,15.40
2018-02-17T05:37:20.831Z,15.30
2018-02-17T05:39:47.988Z,15.50
2018-02-17T05:42:19.322Z,15.40
2018-02-17T05:44:51.820Z,15.50
2018-02-17T05:47:29.090Z,15.80
2018-02-17T05:49:55.447Z,15.60
2018-02-17T05:52:21.784Z,15.50
2018-02-17T05:54:49.027Z,15.60
2018-02-17T05:57:15.373Z,15.50
2018-02-17T05:59:41.695Z,15.40
2018-02-17T06:02:08.172Z,15.50
2018-02-17T06:04:35.271Z,15.60
2018-02-17T06:07:01.602Z,15.40
2018-02-17T06:09:28.204Z,15.50
2018-02-17T06:11:55.333Z,15.50
2018-02-17T06:14:21.684Z,15.40
2018-02-17T06:16:48.179Z,15.60
2018-02-17T06:19:14.640Z,15.50
2018-02-17T06:21:40.986Z,15.70
2018-02-17T06:24:07.593Z,15.40
2018-02-17T06:26:33.958Z,15.50
2018-02-17T06:29:00.311Z,15.50
2018-02-17T06:31:26.831Z,15.00
2018-02-17T06:33:53.160Z,15.50
2018-02-17T06:36:19.466Z,15.30
2018-02-17T06:38:45.934Z,15.00
2018-02-17T06:41:12.263Z,15.20
2018-02-17T06:43:38.610Z,15.50
2018-02-17T06:46:05.144Z,15.60
2018-02-17T06:48:31.455Z,14.90
2018-02-17T06:50:57.786Z,15.50
2018-02-17T06:53:24.227Z,15.30
2018-02-17T06:55:50.793Z,15.00
2018-02-17T06:58:17.538Z,15.20
2018-02-17T07:00:43.855Z,15.20
2018-02-17T07:03:10.174Z,15.30
2018-02-17T07:05:36.929Z,15.10
2018-02-17T07:08:03.268Z,15.60
2018-02-17T07:10:29.604Z,16.20
2018-02-17T07:12:56.587Z,16.70
2018-02-17T07:15:22.895Z,17.20
2018-02-17T07:17:49.209Z,18.10
2018-02-17T07:20:15.902Z,18.50
2018-02-17T07:22:42.224Z,18.70
2018-02-17T07:25:08.557Z,19.00
2018-02-17T07:27:35.003Z,18.90
2018-02-17T07:30:01.752Z,19.10
2018-02-17T07:32:28.112Z,19.10
2018-02-17T07:34:54.458Z,19.70
2018-02-17T07:37:20.976Z,19.80
2018-02-17T07:39:47.820Z,19.90
2018-02-17T07:42:14.165Z,19.90
2018-02-17T07:44:40.504Z,19.90
2018-02-17T07:47:07.029Z,19.30
2018-02-17T07:49:33.389Z,19.90
2018-02-17T07:51:59.753Z,20.10
2018-02-17T07:54:26.346Z,19.30
2018-02-17T07:56:52.842Z,19.90
2018-02-17T07:59:19.905Z,19.80
2018-02-17T08:01:46.373Z,20.10
2018-02-17T08:04:13.225Z,19.80
2018-02-17T08:06:39.593Z,19.30
2018-02-17T08:09:05.937Z,19.20
2018-02-17T08:11:33.272Z,18.70
2018-02-17T08:13:59.631Z,18.50
2018-02-17T08:16:26.712Z,18.10
2018-02-17T08:18:53.292Z,18.10
2018-02-17T08:21:19.641Z,18.00
2018-02-17T08:23:46.034Z,17.90
2018-02-17T08:26:12.482Z,17.60
2018-02-17T08:28:38.840Z,17.20
2018-02-17T08:31:05.643Z,17.20
2018-02-17T08:33:32.076Z,18.70
2018-02-17T08:35:59.207Z,18.50
2018-02-17T08:38:25.672Z,18.60
2018-02-17T08:40:52.763Z,18.50
2018-02-17T08:43:19.106Z,18.50
2018-02-17T08:45:53.433Z,18.10
2018-02-17T08:48:19.809Z,18.00
2018-02-17T08:50:46.903Z,17.90
2018-02-17T08:53:13.369Z,17.70
2018-02-17T08:55:39.695Z,17.30
2018-02-17T08:58:06.040Z,17.60
2018-02-17T09:00:33.296Z,17.20
2018-02-17T09:03:00.143Z,17.30
2018-02-17T09:05:26.508Z,17.50
2018-02-17T09:07:52.910Z,17.10
2018-02-17T09:13:29.495Z,17.30
2018-02-17T09:15:56.378Z,17.10
2018-02-17T09:18:22.796Z,17.20
2018-02-17T09:20:49.183Z,17.30
2018-02-17T09:23:15.657Z,17.00
2018-02-17T09:25:41.990Z,17.30
2018-02-17T09:28:08.373Z,17.10
2018-02-17T09:30:35.783Z,17.10
2018-02-17T09:33:02.129Z,17.20
2018-02-17T09:35:28.462Z,17.10
2018-02-17T09:37:55.004Z,17.00
2018-02-17T09:40:21.366Z,17.00
2018-02-17T09:42:47.713Z,17.10
2018-02-17T09:45:14.936Z,17.10
2018-02-17T09:47:41.284Z,17.00
2018-02-17T09:50:07.629Z,16.70
2018-02-17T09:52:34.149Z,17.30
2018-02-17T09:55:00.492Z,17.10
2018-02-17T09:57:26.802Z,17.10
2018-02-17T09:59:53.250Z,16.90
2018-02-17T10:02:19.599Z,16.60
2018-02-17T10:04:53.214Z,16.60
2018-02-17T10:07:19.555Z,16.70
2018-02-17T10:09:46.322Z,17.10
2018-02-17T10:12:13.418Z,17.10
2018-02-17T10:14:39.788Z,17.20
2018-02-17T10:17:06.223Z,17.10
2018-02-17T10:19:34.050Z,17.10
2018-02-17T10:22:00.820Z,17.00
2018-02-17T10:24:27.181Z,17.00
2018-02-17T10:26:53.536Z,17.00
2018-02-17T10:29:20.778Z,17.10
2018-02-17T10:31:47.430Z,17.10
2018-02-17T10:34:14.511Z,19.00
2018-02-17T10:36:40.996Z,19.20
2018-02-17T10:39:07.355Z,19.70
2018-02-17T10:41:34.104Z,20.10
2018-02-17T10:44:00.467Z,20.60
2018-02-17T10:46:26.819Z,21.50
2018-02-17T10:48:53.621Z,21.60
2018-02-17T10:51:19.993Z,21.60
2018-02-17T10:53:46.345Z,21.80
2018-02-17T10:56:13.003Z,22.50
2018-02-17T10:58:39.339Z,22.60
2018-02-17T11:01:05.680Z,22.90
2018-02-17T11:03:32.261Z,23.00
2018-02-17T11:05:58.631Z,23.10
2018-02-17T11:08:24.982Z,23.10
2018-02-17T11:10:51.470Z,22.60
2018-02-17T11:13:17.866Z,22.90
2018-02-17T11:15:44.212Z,22.50
2018-02-17T11:18:10.725Z,22.40
2018-02-17T11:20:37.068Z,22.50
2018-02-17T11:23:03.902Z,21.90
2018-02-17T11:25:30.709Z,21.70
2018-02-17T11:27:57.070Z,21.00
2018-02-17T11:30:24.218Z,20.80
2018-02-17T11:32:51.484Z,20.30
2018-02-17T11:35:18.568Z,20.20
2018-02-17T11:37:45.938Z,20.30
2018-02-17T11:40:12.283Z,20.20
2018-02-17T11:42:39.660Z,19.60
2018-02-17T11:45:06.102Z,19.70
2018-02-17T11:47:32.424Z,19.60
2018-02-17T11:49:59.491Z,20.80
2018-02-17T11:52:26.121Z,21.00
2018-02-17T11:54:52.471Z,21.00
2018-02-17T11:57:18.814Z,21.00
2018-02-17T11:59:45.264Z,21.50
2018-02-17T12:02:11.610Z,21.60
2018-02-17T12:04:38.708Z,21.80
2018-02-17T12:07:05.268Z,21.60
2018-02-17T12:09:31.668Z,22.30
2018-02-17T12:11:57.998Z,21.60
2018-02-17T12:14:24.545Z,22.10
2018-02-17T12:16:50.868Z,21.50
2018-02-17T12:19:17.202Z,21.70
2018-02-17T12:21:43.664Z,21.70
2018-02-17T12:24:10.002Z,21.70
2018-02-17T12:26:36.864Z,21.40
2018-02-17T12:29:04.364Z,21.50
2018-02-17T12:31:30.715Z,21.00
2018-02-17T12:33:57.815Z,21.00
2018-02-17T12:36:24.571Z,20.80
2018-02-17T12:38:51.134Z,20.70
2018-02-17T12:41:17.497Z,21.00
2018-02-17T12:43:44.774Z,20.20
2018-02-17T12:46:11.162Z,20.10
2018-02-17T12:48:37.488Z,20.20
2018-02-17T12:51:03.929Z,20.80
2018-02-17T12:53:30.267Z,21.10
2018-02-17T12:55:56.640Z,21.20
2018-02-17T12:58:23.854Z,20.80
2018-02-17T13:00:50.336Z,20.70
2018-02-17T13:03:17.413Z,20.20
2018-02-17T13:05:44.090Z,20.20
2018-02-17T13:08:10.542Z,20.10
2018-02-17T13:10:37.303Z,19.90
2018-02-17T13:13:03.733Z,19.80
2018-02-17T13:15:30.656Z,19.60
2018-02-17T13:17:57.324Z,19.50
2018-02-17T13:20:24.095Z,19.60
2018-02-17T13:22:51.629Z,20.30
2018-02-17T13:25:18.466Z,19.80
2018-02-17T13:27:45.128Z,20.70
2018-02-17T13:30:11.888Z,21.00
2018-02-17T13:32:38.666Z,21.80
2018-02-17T13:35:05.562Z,21.80
2018-02-17T13:37:32.350Z,22.20
2018-02-17T13:39:59.800Z,22.30
2018-02-17T13:42:27.264Z,22.30
2018-02-17T13:44:54.809Z,21.70
2018-02-17T13:47:21.660Z,22.30
2018-02-17T13:49:48.692Z,22.20
2018-02-17T13:52:15.535Z,21.80
2018-02-17T13:54:42.308Z,21.40
2018-02-17T13:57:09.182Z,21.50
2018-02-17T13:59:36.598Z,20.80
2018-02-17T14:02:02.995Z,20.80
2018-02-17T14:04:29.459Z,21.10
2018-02-17T14:06:55.857Z,20.80
2018-02-17T14:09:22.226Z,20.30
2018-02-17T14:11:48.727Z,20.70
2018-02-17T14:14:15.848Z,20.20
2018-02-17T14:16:42.347Z,20.20
2018-02-17T14:19:09.150Z,20.30
2018-02-17T14:21:35.513Z,20.20
2018-02-17T14:24:01.890Z,20.30
2018-02-17T14:26:28.451Z,20.30
2018-02-17T14:28:55.208Z,20.10
2018-02-17T14:31:21.544Z,20.20
2018-02-17T14:33:47.966Z,20.10
2018-02-17T14:36:14.443Z,19.70
2018-02-17T14:38:41.522Z,19.10
2018-02-17T14:41:07.876Z,19.20
2018-02-17T14:43:34.477Z,19.60
2018-02-17T14:46:01.603Z,21.00
2018-02-17T14:48:28.024Z,20.40
2018-02-17T14:50:54.494Z,21.10
2018-02-17T14:53:21.318Z,21.70
2018-02-17T14:55:47.660Z,21.60
2018-02-17T14:58:14.057Z,22.30
2018-02-17T15:00:40.725Z,22.40
2018-02-17T15:03:07.090Z,21.80
2018-02-17T15:05:34.205Z,21.80
2018-02-17T15:08:00.656Z,21.50
2018-02-17T15:10:26.987Z,21.60
2018-02-17T15:12:53.665Z,21.40
2018-02-17T15:15:20.322Z,20.90
2018-02-17T15:17:47.779Z,20.80
2018-02-17T15:20:14.490Z,20.90
2018-02-17T15:22:41.257Z,20.80
2018-02-17T15:25:07.780Z,20.60
2018-02-17T15:27:34.122Z,20.30
2018-02-17T15:30:00.572Z,20.20
2018-02-17T15:32:27.250Z,20.30
2018-02-17T15:34:53.626Z,20.10
2018-02-17T15:37:19.958Z,20.20
2018-02-17T15:39:46.693Z,20.20
2018-02-17T15:42:13.456Z,20.30
2018-02-17T15:44:40.152Z,20.20
2018-02-17T15:47:07.726Z,20.20
2018-02-17T15:49:35.337Z,20.20
2018-02-17T15:52:02.184Z,20.20
2018-02-17T15:54:28.963Z,20.30
2018-02-17T15:56:55.805Z,20.20
2018-02-17T15:59:23.475Z,20.30
2018-02-17T16:01:50.249Z,20.20
2018-02-17T16:04:16.970Z,20.20
2018-02-17T16:06:44.477Z,20.20
2018-02-17T16:09:11.192Z,20.10
2018-02-17T16:11:38.676Z,20.20
2018-02-17T16:14:05.378Z,20.20
2018-02-17T16:16:31.758Z,20.20
2018-02-17T16:18:58.094Z,20.20
2018-02-17T16:21:24.673Z,20.10
2018-02-17T16:23:51.017Z,20.30
2018-02-17T16:26:17.532Z,20.20
2018-02-17T16:28:44.102Z,20.40
2018-02-17T16:31:10.446Z,20.30
2018-02-17T16:33:37.161Z,20.30
2018-02-17T16:36:03.610Z,20.40
2018-02-17T16:38:30.192Z,20.30
2018-02-17T16:40:57.253Z,20.30
2018-02-17T16:43:24.429Z,20.30
2018-02-17T16:45:50.780Z,20.30
2018-02-17T16:48:17.122Z,20.40
2018-02-17T16:50:43.675Z,20.70
2018-02-17T16:53:10.029Z,20.30
2018-02-17T16:55:36.354Z,20.20
2018-02-17T16:58:02.894Z,20.10
2018-02-17T17:00:29.249Z,20.30
2018-02-17T17:02:57.045Z,20.20
2018-02-17T17:05:24.680Z,19.70
2018-02-17T17:07:51.932Z,19.80
2018-02-17T17:10:18.934Z,19.70
2018-02-17T17:12:45.658Z,19.80
2018-02-17T17:15:12.758Z,19.70
2018-02-17T17:17:39.080Z,19.90
2018-02-17T17:20:05.497Z,19.80
2018-02-17T17:22:31.809Z,19.70
2018-02-17T17:24:58.164Z,19.70
2018-02-17T17:27:25.422Z,19.70
2018-02-17T17:29:52.485Z,19.80
2018-02-17T17:32:18.821Z,19.80
2018-02-17T17:34:45.312Z,19.60
2018-02-17T17:37:11.692Z,19.80
2018-02-17T17:39:38.770Z,19.70
2018-02-17T17:42:05.196Z,19.70
2018-02-17T17:44:31.546Z,19.70
2018-02-17T17:46:57.926Z,19.70
2018-02-17T17:49:24.381Z,19.60
2018-02-17T17:51:50.736Z,19.60
2018-02-17T17:54:17.830Z,19.40
2018-02-17T17:56:44.377Z,19.10
2018-02-17T17:59:10.721Z,19.20
2018-02-17T18:01:37.060Z,19.20
2018-02-17T18:04:03.510Z,19.10
2018-02-17T18:06:29.839Z,19.10
2018-02-17T18:08:56.177Z,19.20
2018-02-17T18:11:22.708Z,19.10
2018-02-17T18:13:49.026Z,19.00
2018-02-17T18:16:15.344Z,19.00
2018-02-17T18:18:41.929Z,19.10
2018-02-17T18:21:08.249Z,19.10
2018-02-17T18:23:34.579Z,19.10
2018-02-17T18:26:01.008Z,19.00
2018-02-17T18:28:27.521Z,19.00
2018-02-17T18:30:53.899Z,19.00
2018-02-17T18:33:20.453Z,19.20
2018-02-17T18:35:46.777Z,19.00
2018-02-17T18:38:13.115Z,19.00
2018-02-17T18:40:40.003Z,19.10
2018-02-17T18:43:07.601Z,19.10
2018-02-17T18:45:35.069Z,19.10
2018-02-17T18:48:01.758Z,19.10
2018-02-17T18:50:28.496Z,19.00
2018-02-17T18:52:55.143Z,19.20
2018-02-17T18:55:22.097Z,19.10
2018-02-17T18:57:49.126Z,19.00
2018-02-17T19:00:15.949Z,19.10
2018-02-17T19:02:42.659Z,19.10
2018-02-17T19:05:10.715Z,19.00
2018-02-17T19:07:37.583Z,19.20
2018-02-17T19:10:05.217Z,19.20
2018-02-17T19:12:32.049Z,19.00
2018-02-17T19:14:58.858Z,19.00
2018-02-17T19:17:26.385Z,18.50
2018-02-17T19:19:53.160Z,18.50
2018-02-17T19:22:20.717Z,18.50
2018-02-17T19:24:48.189Z,18.60
2018-02-17T19:27:15.451Z,18.50
2018-02-17T19:29:42.560Z,18.30
2018-02-17T19:32:08.999Z,18.60
2018-02-17T19:34:35.379Z,17.90
2018-02-17T19:37:02.473Z,18.20
2018-02-17T19:39:29.028Z,17.90
2018-02-17T19:41:55.435Z,18.00
2018-02-17T19:44:21.769Z,18.20
2018-02-17T19:46:48.670Z,18.00
2018-02-17T19:49:15.016Z,18.50
2018-02-17T19:51:41.365Z,18.50
2018-02-17T19:54:08.535Z,18.60
2018-02-17T19:56:34.926Z,18.60
2018-02-17T19:59:01.291Z,18.60
2018-02-17T20:01:28.517Z,18.50
2018-02-17T20:03:54.884Z,18.60
2018-02-17T20:06:21.989Z,18.60
2018-02-17T20:08:48.560Z,18.60
2018-02-17T20:11:14.947Z,18.50
2018-02-17T20:13:41.389Z,18.60
2018-02-17T20:16:08.576Z,19.00
2018-02-17T20:18:34.933Z,18.60
2018-02-17T20:21:01.281Z,19.00
2018-02-17T20:23:27.754Z,18.70
2018-02-17T20:25:54.118Z,19.10
2018-02-17T20:28:20.645Z,18.50
2018-02-17T20:30:47.445Z,18.90
2018-02-17T20:33:13.779Z,18.70
2018-02-17T20:35:40.130Z,19.00
2018-02-17T20:38:07.319Z,19.00
2018-02-17T20:40:34.005Z,18.60
2018-02-17T20:43:00.338Z,18.70
2018-02-17T20:45:26.678Z,18.50
2018-02-17T20:47:53.183Z,18.70
2018-02-17T20:50:19.613Z,18.50
2018-02-17T20:52:45.993Z,18.60
2018-02-17T20:55:12.692Z,18.50
2018-02-17T20:57:39.954Z,18.40
2018-02-17T21:00:06.286Z,18.60
2018-02-17T21:02:32.786Z,18.70
2018-02-17T21:04:59.160Z,18.50
2018-02-17T21:07:25.495Z,18.60
2018-02-17T21:09:52.325Z,18.70
2018-02-17T21:12:19.378Z,18.60
2018-02-17T21:14:46.924Z,18.60
2018-02-17T21:17:13.276Z,18.40
2018-02-17T21:19:40.924Z,18.50
2018-02-17T21:22:07.313Z,18.60
2018-02-17T21:24:34.083Z,18.60
2018-02-17T21:27:00.429Z,18.60
2018-02-17T21:29:26.802Z,18.50
2018-02-17T21:31:54.216Z,19.00
2018-02-17T21:34:20.553Z,19.00
2018-02-17T21:36:47.232Z,18.90
2018-02-17T21:39:14.357Z,19.10
2018-02-17T21:41:40.674Z,19.10
2018-02-17T21:44:07.125Z,19.10
2018-02-17T21:46:33.892Z,19.10
2018-02-17T21:49:00.265Z,19.10
2018-02-17T21:51:26.624Z,19.20
2018-02-17T21:53:53.096Z,19.20
2018-02-17T21:56:19.468Z,19.50
2018-02-17T21:58:46.535Z,19.60
2018-02-17T22:01:12.972Z,19.60
2018-02-17T22:03:39.306Z,19.60
2018-02-17T22:06:05.652Z,19.60
2018-02-17T22:08:32.533Z,19.70
2018-02-17T22:10:59.202Z,19.50
2018-02-17T22:13:25.546Z,19.30
2018-02-17T22:15:51.994Z,19.00
2018-02-17T22:18:19.386Z,19.10
2018-02-17T22:20:45.715Z,19.10
2018-02-17T22:23:12.045Z,18.50
2018-02-17T22:25:38.524Z,18.60
2018-02-17T22:28:04.874Z,18.60
2018-02-17T22:30:31.627Z,18.60
2018-02-17T22:32:57.974Z,18.60
2018-02-17T22:35:24.408Z,18.50
2018-02-17T22:37:50.927Z,18.40
2018-02-17T22:40:17.257Z,18.60
2018-02-17T22:42:43.576Z,18.40
2018-02-17T22:45:10.174Z,18.50
2018-02-17T22:47:36.504Z,18.50
2018-02-17T22:50:02.889Z,18.50
2018-02-17T22:52:29.336Z,18.10
2018-02-17T22:54:56.099Z,18.20
2018-02-17T22:57:22.435Z,18.00
2018-02-17T22:59:48.754Z,17.80
2018-02-17T23:02:15.336Z,17.70
2018-02-17T23:04:41.664Z,17.70
2018-02-17T23:07:09.461Z,17.50
2018-02-17T23:09:35.969Z,17.40
2018-02-17T23:12:02.292Z,17.30
2018-02-17T23:14:28.615Z,17.60
2018-02-17T23:16:55.173Z,17.50
2018-02-17T23:19:21.554Z,17.50
2018-02-17T23:21:49.015Z,16.70
2018-02-17T23:24:16.659Z,16.80
2018-02-17T23:26:43.585Z,16.70
2018-02-17T23:29:09.917Z,16.70
2018-02-17T23:31:36.284Z,16.70
2018-02-17T23:34:03.735Z,16.60
2018-02-17T23:36:30.481Z,16.70
2018-02-17T23:38:57.234Z,16.60
2018-02-17T23:41:23.562Z,16.50
2018-02-17T23:43:49.923Z,16.60
2018-02-17T23:46:17.093Z,16.50
2018-02-17T23:48:43.436Z,16.20
2018-02-17T23:51:09.845Z,16.20
2018-02-17T23:53:36.360Z,16.40
2018-02-17T23:56:02.699Z,16.20
2018-02-17T23:58:29.007Z,16.10
